createdAt,value
2017-06-14T00:00:44.957Z,13.53
2017-06-14T00:01:45.681Z,13.47
2017-06-14T00:02:46.402Z,13.41
2017-06-14T00:03:47.125Z,13.47
2017-06-14T00:04:47.845Z,13.49
2017-06-14T00:05:48.569Z,13.44
2017-06-14T00:06:49.311Z,13.44
2017-06-14T00:07:50.031Z,13.31
2017-06-14T00:08:50.751Z,13.39
2017-06-14T00:09:51.472Z,13.38
2017-06-14T00:10:52.192Z,13.22
2017-06-14T00:11:52.913Z,13.42
2017-06-14T00:12:53.636Z,13.42
2017-06-14T00:13:54.356Z,13.38
2017-06-14T00:14:55.077Z,13.37
2017-06-14T00:15:55.821Z,13.37
2017-06-14T00:16:56.566Z,13.38
2017-06-14T00:17:57.284Z,13.30
2017-06-14T00:18:58.005Z,13.37
2017-06-14T00:19:58.727Z,13.31
2017-06-14T00:20:59.447Z,13.33
2017-06-14T00:22:00.193Z,13.27
2017-06-14T00:23:00.915Z,13.19
2017-06-14T00:24:01.637Z,13.22
2017-06-14T00:25:02.356Z,13.25
2017-06-14T00:26:03.076Z,13.28
2017-06-14T00:27:03.799Z,13.31
2017-06-14T00:28:04.518Z,13.27
2017-06-14T00:29:05.243Z,13.28
2017-06-14T00:30:05.991Z,13.27
2017-06-14T00:31:06.741Z,13.23
2017-06-14T00:32:07.489Z,13.20
2017-06-14T00:33:08.212Z,13.15
2017-06-14T00:34:08.933Z,13.11
2017-06-14T00:35:09.656Z,13.16
2017-06-14T00:36:10.377Z,13.13
2017-06-14T00:37:11.100Z,13.12
2017-06-14T00:38:11.850Z,13.13
2017-06-14T00:39:12.573Z,13.04
2017-06-14T00:40:13.296Z,13.05
2017-06-14T00:41:14.018Z,13.03
2017-06-14T00:42:14.744Z,12.94
2017-06-14T00:43:15.470Z,12.95
2017-06-14T00:44:16.187Z,12.85
2017-06-14T00:45:16.909Z,12.85
2017-06-14T00:46:17.632Z,12.91
2017-06-14T00:47:18.356Z,12.85
2017-06-14T00:48:19.078Z,12.86
2017-06-14T00:49:19.799Z,12.79
2017-06-14T00:50:20.523Z,12.86
2017-06-14T00:51:21.245Z,12.80
2017-06-14T00:52:21.965Z,12.82
2017-06-14T00:53:22.714Z,12.76
2017-06-14T00:54:23.437Z,12.80
2017-06-14T00:55:24.185Z,12.80
2017-06-14T00:56:24.908Z,12.75
2017-06-14T00:57:25.631Z,12.78
2017-06-14T00:58:26.353Z,12.79
2017-06-14T00:59:27.075Z,12.73
2017-06-14T01:00:27.796Z,12.79
2017-06-14T01:01:28.519Z,12.75
2017-06-14T01:02:29.242Z,12.75
2017-06-14T01:03:29.966Z,12.80
2017-06-14T01:04:30.711Z,12.73
2017-06-14T01:05:31.436Z,12.79
2017-06-14T01:06:32.162Z,12.75
2017-06-14T01:07:32.909Z,12.73
2017-06-14T01:08:33.631Z,12.75
2017-06-14T01:09:34.352Z,12.68
2017-06-14T01:10:35.077Z,12.78
2017-06-14T01:11:35.827Z,12.79
2017-06-14T01:12:36.550Z,12.78
2017-06-14T01:13:37.273Z,12.76
2017-06-14T01:14:37.996Z,12.68
2017-06-14T01:15:38.721Z,12.73
2017-06-14T01:16:39.442Z,12.75
2017-06-14T01:17:40.166Z,12.68
2017-06-14T01:18:40.890Z,12.65
2017-06-14T01:19:41.639Z,12.72
2017-06-14T01:20:42.360Z,12.72
2017-06-14T01:21:43.085Z,12.73
2017-06-14T01:22:43.807Z,12.67
2017-06-14T01:23:44.530Z,12.68
2017-06-14T01:24:45.253Z,12.64
2017-06-14T01:25:45.974Z,12.72
2017-06-14T01:26:46.698Z,12.68
2017-06-14T01:27:47.419Z,12.60
2017-06-14T01:28:48.143Z,12.64
2017-06-14T01:29:48.866Z,12.72
2017-06-14T01:30:49.589Z,12.58
2017-06-14T01:31:50.313Z,12.64
2017-06-14T01:32:51.033Z,12.61
2017-06-14T01:33:51.758Z,12.61
2017-06-14T01:34:52.479Z,12.62
2017-06-14T01:35:53.206Z,12.60
2017-06-14T01:36:53.926Z,12.57
2017-06-14T01:37:54.654Z,12.61
2017-06-14T01:38:55.373Z,12.55
2017-06-14T01:39:56.095Z,12.55
2017-06-14T01:40:56.817Z,12.58
2017-06-14T01:41:57.542Z,12.53
2017-06-14T01:42:58.266Z,12.49
2017-06-14T01:43:58.988Z,12.45
2017-06-14T01:44:59.708Z,12.46
2017-06-14T01:46:00.456Z,12.47
2017-06-14T01:47:01.176Z,12.47
2017-06-14T01:48:01.903Z,12.42
2017-06-14T01:49:02.625Z,12.47
2017-06-14T01:50:03.347Z,12.45
2017-06-14T01:51:04.070Z,12.46
2017-06-14T01:52:04.819Z,12.46
2017-06-14T01:53:05.541Z,12.49
2017-06-14T01:54:06.266Z,12.54
2017-06-14T01:55:06.988Z,12.40
2017-06-14T01:56:07.711Z,12.35
2017-06-14T01:57:08.434Z,12.28
2017-06-14T01:58:09.156Z,12.36
2017-06-14T01:59:09.904Z,12.32
2017-06-14T02:00:10.628Z,12.25
2017-06-14T02:01:11.349Z,12.25
2017-06-14T02:02:12.069Z,12.27
2017-06-14T02:03:12.794Z,12.27
2017-06-14T02:04:13.518Z,12.20
2017-06-14T02:05:14.241Z,12.25
2017-06-14T02:06:14.962Z,12.13
2017-06-14T02:07:15.685Z,12.25
2017-06-14T02:08:16.407Z,12.17
2017-06-14T02:09:17.133Z,12.18
2017-06-14T02:10:17.856Z,12.25
2017-06-14T02:11:18.579Z,12.21
2017-06-14T02:12:19.300Z,12.15
2017-06-14T02:13:20.024Z,12.24
2017-06-14T02:14:20.773Z,12.25
2017-06-14T02:15:21.497Z,12.21
2017-06-14T02:16:22.222Z,12.13
2017-06-14T02:17:22.944Z,12.15
2017-06-14T02:18:23.668Z,12.18
2017-06-14T02:19:24.389Z,12.17
2017-06-14T02:20:25.117Z,12.15
2017-06-14T02:21:25.834Z,12.15
2017-06-14T02:22:26.559Z,12.21
2017-06-14T02:23:27.279Z,12.17
2017-06-14T02:24:28.004Z,12.18
2017-06-14T02:25:28.726Z,12.18
2017-06-14T02:26:29.449Z,12.09
2017-06-14T02:27:30.177Z,12.09
2017-06-14T02:28:30.919Z,12.07
2017-06-14T02:29:31.644Z,12.15
2017-06-14T02:30:32.367Z,12.09
2017-06-14T02:31:33.089Z,12.00
2017-06-14T02:32:33.811Z,12.02
2017-06-14T02:33:34.559Z,11.94
2017-06-14T02:34:35.284Z,11.87
2017-06-14T02:35:36.005Z,11.94
2017-06-14T02:36:36.729Z,11.80
2017-06-14T02:37:37.452Z,11.77
2017-06-14T02:38:38.173Z,11.83
2017-06-14T02:39:38.918Z,11.80
2017-06-14T02:40:39.639Z,11.78
2017-06-14T02:41:40.361Z,11.86
2017-06-14T02:42:41.089Z,11.86
2017-06-14T02:43:41.815Z,11.70
2017-06-14T02:44:42.538Z,11.75
2017-06-14T02:45:43.259Z,11.78
2017-06-14T02:46:43.984Z,11.80
2017-06-14T02:47:44.708Z,11.70
2017-06-14T02:48:45.458Z,11.73
2017-06-14T02:49:46.184Z,11.75
2017-06-14T02:50:46.907Z,11.69
2017-06-14T02:51:47.633Z,11.69
2017-06-14T02:52:48.351Z,11.57
2017-06-14T02:53:49.076Z,11.57
2017-06-14T02:54:49.800Z,11.57
2017-06-14T02:55:50.524Z,11.57
2017-06-14T02:56:51.246Z,11.55
2017-06-14T02:57:51.970Z,11.51
2017-06-14T02:58:52.691Z,11.50
2017-06-14T02:59:53.415Z,11.55
2017-06-14T03:00:54.138Z,11.40
2017-06-14T03:01:54.859Z,11.40
2017-06-14T03:02:55.605Z,11.40
2017-06-14T03:03:56.331Z,11.37
2017-06-14T03:04:57.057Z,11.43
2017-06-14T03:05:57.796Z,11.41
2017-06-14T03:06:58.509Z,11.51
2017-06-14T03:07:59.235Z,11.41
2017-06-14T03:08:59.959Z,11.40
2017-06-14T03:10:00.710Z,11.40
2017-06-14T03:11:01.437Z,11.44
2017-06-14T03:12:02.158Z,11.37
2017-06-14T03:13:02.886Z,11.41
2017-06-14T03:14:03.610Z,11.43
2017-06-14T03:15:04.334Z,11.37
2017-06-14T03:16:05.057Z,11.47
2017-06-14T03:17:05.784Z,11.44
2017-06-14T03:18:06.533Z,11.43
2017-06-14T03:19:07.257Z,11.40
2017-06-14T03:20:07.984Z,11.41
2017-06-14T03:21:08.709Z,11.37
2017-06-14T03:22:09.437Z,11.36
2017-06-14T03:23:10.187Z,11.32
2017-06-14T03:24:10.913Z,11.32
2017-06-14T03:25:11.638Z,11.27
2017-06-14T03:26:12.365Z,11.22
2017-06-14T03:27:13.091Z,11.33
2017-06-14T03:28:13.819Z,11.33
2017-06-14T03:29:14.545Z,11.35
2017-06-14T03:30:15.270Z,11.30
2017-06-14T03:31:15.998Z,11.29
2017-06-14T03:32:16.724Z,11.22
2017-06-14T03:33:17.447Z,11.30
2017-06-14T03:34:18.175Z,11.27
2017-06-14T03:35:18.900Z,11.26
2017-06-14T03:36:19.624Z,11.29
2017-06-14T03:37:20.350Z,11.23
2017-06-14T03:38:21.077Z,11.18
2017-06-14T03:39:21.800Z,11.30
2017-06-14T03:40:22.528Z,11.30
2017-06-14T03:41:23.254Z,11.29
2017-06-14T03:42:23.977Z,11.32
2017-06-14T03:43:24.705Z,11.32
2017-06-14T03:44:25.428Z,11.22
2017-06-14T03:45:26.176Z,11.27
2017-06-14T03:46:26.957Z,11.27
2017-06-14T03:47:27.653Z,11.33
2017-06-14T03:48:28.378Z,11.26
2017-06-14T03:49:29.103Z,11.33
2017-06-14T03:50:29.828Z,11.22
2017-06-14T03:51:30.554Z,11.30
2017-06-14T03:52:31.280Z,11.26
2017-06-14T03:53:32.005Z,11.40
2017-06-14T03:54:32.732Z,11.32
2017-06-14T03:55:33.458Z,11.32
2017-06-14T03:56:34.183Z,11.29
2017-06-14T03:57:34.910Z,11.29
2017-06-14T03:58:35.660Z,11.37
2017-06-14T03:59:36.389Z,11.45
2017-06-14T04:00:37.115Z,11.45
2017-06-14T04:01:37.839Z,11.35
2017-06-14T04:02:38.569Z,11.35
2017-06-14T04:03:39.294Z,11.36
2017-06-14T04:04:40.023Z,11.41
2017-06-14T04:05:40.748Z,11.44
2017-06-14T04:06:41.476Z,11.51
2017-06-14T04:07:42.199Z,11.55
2017-06-14T04:08:42.929Z,11.47
2017-06-14T04:09:43.680Z,11.54
2017-06-14T04:10:44.433Z,11.62
2017-06-14T04:11:45.162Z,11.54
2017-06-14T04:12:45.888Z,11.72
2017-06-14T04:13:46.614Z,11.60
2017-06-14T04:14:47.343Z,11.63
2017-06-14T04:15:48.069Z,11.68
2017-06-14T04:16:48.798Z,11.72
2017-06-14T04:17:49.523Z,11.68
2017-06-14T04:18:50.251Z,11.77
2017-06-14T04:19:51.003Z,11.77
2017-06-14T04:20:51.731Z,11.83
2017-06-14T04:21:52.463Z,11.81
2017-06-14T04:22:53.192Z,11.86
2017-06-14T04:23:53.919Z,11.84
2017-06-14T04:24:54.668Z,11.94
2017-06-14T04:25:55.421Z,11.97
2017-06-14T04:26:56.175Z,11.97
2017-06-14T04:27:56.903Z,12.02
2017-06-14T04:28:57.634Z,12.06
2017-06-14T04:29:58.360Z,12.22
2017-06-14T04:30:59.090Z,12.17
2017-06-14T04:31:59.817Z,12.20
2017-06-14T04:33:00.545Z,12.25
2017-06-14T04:34:01.272Z,12.25
2017-06-14T04:35:02.002Z,12.29
2017-06-14T04:36:02.728Z,12.29
2017-06-14T04:37:03.462Z,12.31
2017-06-14T04:38:04.188Z,12.39
2017-06-14T04:39:04.917Z,12.32
2017-06-14T04:40:05.643Z,12.49
2017-06-14T04:41:06.395Z,12.47
2017-06-14T04:42:07.126Z,12.50
2017-06-14T04:43:07.854Z,12.47
2017-06-14T04:44:08.584Z,12.57
2017-06-14T04:45:09.313Z,12.58
2017-06-14T04:46:10.045Z,12.68
2017-06-14T04:47:10.769Z,12.72
2017-06-14T04:48:11.500Z,12.72
2017-06-14T04:49:12.227Z,12.73
2017-06-14T04:50:12.957Z,12.80
2017-06-14T04:51:13.687Z,12.80
2017-06-14T04:52:14.416Z,12.78
2017-06-14T04:53:15.145Z,12.80
2017-06-14T04:54:15.876Z,12.87
2017-06-14T04:55:16.606Z,13.00
2017-06-14T04:56:17.334Z,13.03
2017-06-14T04:57:18.064Z,12.93
2017-06-14T04:58:18.794Z,13.04
2017-06-14T04:59:19.548Z,13.04
2017-06-14T05:00:20.280Z,13.11
2017-06-14T05:01:21.008Z,13.16
2017-06-14T05:02:21.734Z,13.25
2017-06-14T05:03:22.465Z,13.35
2017-06-14T05:04:23.193Z,13.28
2017-06-14T05:05:23.922Z,13.46
2017-06-14T05:06:24.652Z,13.46
2017-06-14T05:07:25.379Z,13.53
2017-06-14T05:08:26.110Z,13.56
2017-06-14T05:09:26.839Z,13.57
2017-06-14T05:10:27.571Z,13.59
2017-06-14T05:11:28.298Z,13.67
2017-06-14T05:12:29.027Z,13.71
2017-06-14T05:13:29.760Z,13.75
2017-06-14T05:14:30.491Z,13.79
2017-06-14T05:15:31.223Z,13.81
2017-06-14T05:16:31.952Z,13.83
2017-06-14T05:17:32.682Z,13.86
2017-06-14T05:18:33.438Z,13.92
2017-06-14T05:19:34.166Z,13.90
2017-06-14T05:20:34.897Z,14.10
2017-06-14T05:21:35.629Z,14.08
2017-06-14T05:22:36.358Z,14.10
2017-06-14T05:23:37.089Z,14.12
2017-06-14T05:24:37.821Z,14.26
2017-06-14T05:25:38.550Z,14.26
2017-06-14T05:26:39.279Z,14.29
2017-06-14T05:27:40.010Z,14.33
2017-06-14T05:28:40.740Z,14.37
2017-06-14T05:29:41.468Z,14.37
2017-06-14T05:30:42.226Z,14.40
2017-06-14T05:31:42.959Z,14.44
2017-06-14T05:32:43.687Z,14.51
2017-06-14T05:33:44.444Z,14.51
2017-06-14T05:34:45.172Z,14.59
2017-06-14T05:35:45.904Z,14.60
2017-06-14T05:36:46.636Z,14.66
2017-06-14T05:37:47.369Z,14.79
2017-06-14T05:38:48.098Z,14.85
2017-06-14T05:39:48.830Z,14.85
2017-06-14T05:40:49.559Z,14.79
2017-06-14T05:41:50.289Z,14.94
2017-06-14T05:42:51.019Z,14.82
2017-06-14T05:43:51.748Z,14.86
2017-06-14T05:44:52.481Z,14.91
2017-06-14T05:45:53.209Z,15.06
2017-06-14T05:46:53.938Z,15.14
2017-06-14T05:47:54.671Z,15.11
2017-06-14T05:48:55.401Z,15.22
2017-06-14T05:49:56.129Z,15.33
2017-06-14T05:50:56.862Z,15.29
2017-06-14T05:51:57.593Z,15.39
2017-06-14T05:52:58.321Z,15.39
2017-06-14T05:53:59.052Z,15.46
2017-06-14T05:54:59.779Z,15.42
2017-06-14T05:56:00.511Z,15.51
2017-06-14T05:57:01.241Z,15.58
2017-06-14T05:58:01.969Z,15.46
2017-06-14T05:59:02.698Z,15.49
2017-06-14T06:00:03.430Z,15.54
2017-06-14T06:01:04.161Z,15.55
2017-06-14T06:02:04.893Z,15.64
2017-06-14T06:03:05.622Z,15.67
2017-06-14T06:04:06.355Z,15.76
2017-06-14T06:05:07.086Z,15.75
2017-06-14T06:06:07.816Z,15.79
2017-06-14T06:07:08.545Z,15.92
2017-06-14T06:08:09.275Z,15.88
2017-06-14T06:09:10.005Z,15.91
2017-06-14T06:10:10.738Z,15.98
2017-06-14T06:11:11.496Z,16.01
2017-06-14T06:12:12.225Z,16.02
2017-06-14T06:13:12.956Z,15.97
2017-06-14T06:14:13.683Z,16.01
2017-06-14T06:15:14.418Z,16.16
2017-06-14T06:16:15.151Z,16.21
2017-06-14T06:17:15.879Z,16.29
2017-06-14T06:18:16.613Z,16.41
2017-06-14T06:19:17.338Z,16.53
2017-06-14T06:20:18.071Z,16.56
2017-06-14T06:21:18.828Z,16.53
2017-06-14T06:22:19.562Z,16.54
2017-06-14T06:23:20.289Z,16.61
2017-06-14T06:24:21.018Z,16.58
2017-06-14T06:25:21.752Z,16.66
2017-06-14T06:26:22.480Z,16.64
2017-06-14T06:27:23.209Z,16.74
2017-06-14T06:28:23.942Z,16.72
2017-06-14T06:29:24.671Z,16.83
2017-06-14T06:30:25.427Z,16.90
2017-06-14T06:31:26.156Z,16.91
2017-06-14T06:32:26.887Z,16.91
2017-06-14T06:33:27.620Z,16.87
2017-06-14T06:34:28.349Z,16.89
2017-06-14T06:35:29.079Z,16.89
2017-06-14T06:36:29.806Z,16.91
2017-06-14T06:37:30.540Z,17.05
2017-06-14T06:38:31.273Z,17.09
2017-06-14T06:39:32.002Z,16.97
2017-06-14T06:40:32.732Z,17.01
2017-06-14T06:41:33.462Z,16.94
2017-06-14T06:42:34.190Z,17.02
2017-06-14T06:43:34.923Z,17.01
2017-06-14T06:44:35.653Z,17.05
2017-06-14T06:45:36.385Z,17.20
2017-06-14T06:46:37.118Z,17.22
2017-06-14T06:47:37.847Z,17.29
2017-06-14T06:48:38.574Z,17.36
2017-06-14T06:49:39.304Z,17.33
2017-06-14T06:50:40.035Z,17.27
2017-06-14T06:51:40.766Z,17.51
2017-06-14T06:52:41.496Z,17.44
2017-06-14T06:53:42.226Z,17.54
2017-06-14T06:54:42.956Z,17.60
2017-06-14T06:55:43.689Z,17.59
2017-06-14T06:56:44.420Z,17.57
2017-06-14T06:57:45.152Z,17.51
2017-06-14T06:58:45.884Z,17.51
2017-06-14T06:59:46.614Z,17.45
2017-06-14T07:00:47.344Z,17.51
2017-06-14T07:01:48.073Z,17.51
2017-06-14T07:02:48.804Z,17.46
2017-06-14T07:03:49.537Z,17.54
2017-06-14T07:04:50.269Z,17.52
2017-06-14T07:05:51.001Z,17.65
2017-06-14T07:06:51.757Z,17.74
2017-06-14T07:07:52.489Z,17.70
2017-06-14T07:08:53.220Z,17.79
2017-06-14T07:09:53.952Z,17.86
2017-06-14T07:10:54.684Z,17.89
2017-06-14T07:11:55.415Z,17.98
2017-06-14T07:12:56.146Z,18.08
2017-06-14T07:13:56.875Z,18.16
2017-06-14T07:14:57.607Z,18.26
2017-06-14T07:15:58.337Z,18.40
2017-06-14T07:16:59.070Z,18.05
2017-06-14T07:17:59.803Z,18.05
2017-06-14T07:19:00.535Z,18.00
2017-06-14T07:20:01.264Z,17.79
2017-06-14T07:21:01.994Z,17.72
2017-06-14T07:22:02.726Z,17.67
2017-06-14T07:23:03.455Z,17.54
2017-06-14T07:24:04.187Z,17.57
2017-06-14T07:25:04.918Z,17.44
2017-06-14T07:26:05.673Z,17.63
2017-06-14T07:27:06.407Z,17.54
2017-06-14T07:28:07.134Z,17.63
2017-06-14T07:29:07.865Z,17.83
2017-06-14T07:30:08.599Z,17.94
2017-06-14T07:31:09.329Z,18.10
2017-06-14T07:32:10.062Z,18.28
2017-06-14T07:33:10.792Z,18.28
2017-06-14T07:34:11.525Z,18.15
2017-06-14T07:35:12.258Z,18.35
2017-06-14T07:36:12.989Z,18.52
2017-06-14T07:37:13.718Z,18.58
2017-06-14T07:38:14.449Z,18.65
2017-06-14T07:39:15.181Z,18.83
2017-06-14T07:40:15.913Z,18.89
2017-06-14T07:41:16.648Z,19.04
2017-06-14T07:42:17.376Z,19.12
2017-06-14T07:43:18.107Z,19.19
2017-06-14T07:44:18.840Z,19.24
2017-06-14T07:45:19.573Z,19.21
2017-06-14T07:46:20.306Z,19.27
2017-06-14T07:47:21.063Z,19.41
2017-06-14T07:48:21.795Z,19.49
2017-06-14T07:49:22.527Z,19.56
2017-06-14T07:50:23.261Z,19.56
2017-06-14T07:51:23.994Z,19.74
2017-06-14T07:52:24.752Z,19.77
2017-06-14T07:53:25.486Z,19.84
2017-06-14T07:54:26.246Z,19.92
2017-06-14T07:55:26.984Z,19.96
2017-06-14T07:56:27.714Z,19.82
2017-06-14T07:57:28.450Z,19.94
2017-06-14T07:58:29.192Z,20.24
2017-06-14T07:59:29.927Z,20.21
2017-06-14T08:00:30.667Z,20.50
2017-06-14T08:01:31.403Z,20.34
2017-06-14T08:02:32.141Z,20.31
2017-06-14T08:03:32.884Z,20.24
2017-06-14T08:04:33.624Z,20.31
2017-06-14T08:05:34.390Z,20.50
2017-06-14T08:06:35.133Z,20.47
2017-06-14T08:07:35.877Z,20.58
2017-06-14T08:08:36.617Z,20.65
2017-06-14T08:09:37.360Z,20.70
2017-06-14T08:10:38.105Z,20.81
2017-06-14T08:11:38.853Z,21.06
2017-06-14T08:12:39.599Z,21.18
2017-06-14T08:13:40.344Z,21.33
2017-06-14T08:14:41.090Z,21.15
2017-06-14T08:15:41.834Z,21.42
2017-06-14T08:16:42.580Z,21.24
2017-06-14T08:17:43.329Z,21.33
2017-06-14T08:18:44.071Z,21.35
2017-06-14T08:19:44.823Z,21.36
2017-06-14T08:20:45.594Z,21.37
2017-06-14T08:21:46.338Z,21.45
2017-06-14T08:22:47.082Z,21.67
2017-06-14T08:23:47.828Z,21.64
2017-06-14T08:24:48.573Z,21.66
2017-06-14T08:25:49.316Z,21.73
2017-06-14T08:26:50.061Z,21.82
2017-06-14T08:27:50.803Z,21.99
2017-06-14T08:28:51.551Z,21.95
2017-06-14T08:29:52.296Z,21.91
2017-06-14T08:30:53.040Z,22.10
2017-06-14T08:31:53.786Z,22.13
2017-06-14T08:32:54.528Z,22.11
2017-06-14T08:33:55.273Z,22.04
2017-06-14T08:34:56.042Z,22.45
2017-06-14T08:35:56.786Z,22.76
2017-06-14T08:36:57.533Z,22.87
2017-06-14T08:37:58.277Z,22.68
2017-06-14T08:38:59.022Z,22.28
2017-06-14T08:39:59.768Z,22.51
2017-06-14T08:41:00.512Z,22.32
2017-06-14T08:42:01.260Z,22.13
2017-06-14T08:43:02.006Z,22.22
2017-06-14T08:44:02.751Z,21.75
2017-06-14T08:45:03.499Z,21.50
2017-06-14T08:46:04.243Z,21.72
2017-06-14T08:47:04.988Z,21.80
2017-06-14T08:48:05.734Z,22.26
2017-06-14T08:49:06.482Z,22.44
2017-06-14T08:50:07.227Z,22.85
2017-06-14T08:51:07.973Z,22.90
2017-06-14T08:52:08.719Z,23.13
2017-06-14T08:53:09.464Z,23.55
2017-06-14T08:54:10.213Z,23.56
2017-06-14T08:55:10.961Z,23.73
2017-06-14T08:56:11.734Z,23.98
2017-06-14T08:57:12.481Z,23.95
2017-06-14T08:58:13.231Z,23.95
2017-06-14T08:59:13.976Z,24.16
2017-06-14T09:00:14.722Z,24.24
2017-06-14T09:01:15.470Z,24.32
2017-06-14T09:02:16.219Z,24.73
2017-06-14T09:03:16.968Z,24.86
2017-06-14T09:04:17.716Z,25.13
2017-06-14T09:05:18.467Z,25.26
2017-06-14T09:06:19.215Z,24.70
2017-06-14T09:07:19.973Z,24.73
2017-06-14T09:08:20.723Z,24.65
2017-06-14T09:09:21.476Z,24.92
2017-06-14T09:10:22.227Z,24.70
2017-06-14T09:11:22.983Z,24.45
2017-06-14T09:12:23.736Z,24.47
2017-06-14T09:13:24.515Z,24.20
2017-06-14T09:14:25.270Z,24.38
2017-06-14T09:15:26.047Z,24.70
2017-06-14T09:16:26.804Z,24.81
2017-06-14T09:17:27.561Z,24.60
2017-06-14T09:18:28.315Z,24.38
2017-06-14T09:19:29.076Z,24.35
2017-06-14T09:20:29.831Z,24.23
2017-06-14T09:21:30.583Z,24.78
2017-06-14T09:22:31.343Z,24.77
2017-06-14T09:23:32.100Z,24.95
2017-06-14T09:24:32.884Z,24.98
2017-06-14T09:25:33.641Z,25.40
2017-06-14T09:26:34.396Z,25.35
2017-06-14T09:27:35.151Z,25.53
2017-06-14T09:28:35.906Z,25.73
2017-06-14T09:29:36.663Z,25.68
2017-06-14T09:30:37.420Z,26.10
2017-06-14T09:31:38.180Z,26.63
2017-06-14T09:32:38.960Z,27.05
2017-06-14T09:33:39.722Z,27.36
2017-06-14T09:34:40.478Z,27.49
2017-06-14T09:35:41.232Z,27.75
2017-06-14T09:36:41.989Z,27.90
2017-06-14T09:37:42.742Z,28.14
2017-06-14T09:38:43.493Z,28.02
2017-06-14T09:39:44.246Z,28.01
2017-06-14T09:40:45.004Z,28.35
2017-06-14T09:41:45.758Z,28.51
2017-06-14T09:42:46.511Z,28.49
2017-06-14T09:43:47.266Z,28.45
2017-06-14T09:44:48.047Z,28.10
2017-06-14T09:45:48.803Z,27.05
2017-06-14T09:46:49.557Z,26.40
2017-06-14T09:47:50.309Z,26.18
2017-06-14T09:48:51.064Z,25.91
2017-06-14T09:49:51.817Z,26.43
2017-06-14T09:50:52.573Z,26.62
2017-06-14T09:51:53.329Z,26.88
2017-06-14T09:52:54.347Z,27.14
2017-06-14T09:53:55.103Z,27.58
2017-06-14T09:54:55.852Z,28.01
2017-06-14T09:55:56.603Z,27.92
2017-06-14T09:56:57.357Z,27.92
2017-06-14T09:57:58.110Z,27.63
2017-06-14T09:58:58.868Z,27.64
2017-06-14T09:59:59.625Z,27.33
2017-06-14T10:01:00.382Z,27.12
2017-06-14T10:02:01.139Z,27.48
2017-06-14T10:03:01.892Z,26.15
2017-06-14T10:04:02.645Z,26.16
2017-06-14T10:05:03.404Z,26.33
2017-06-14T10:06:04.159Z,26.55
2017-06-14T10:07:04.911Z,25.90
2017-06-14T10:08:05.666Z,25.85
2017-06-14T10:09:06.420Z,26.53
2017-06-14T10:10:07.174Z,26.44
2017-06-14T10:11:07.932Z,26.62
2017-06-14T10:12:08.690Z,26.78
2017-06-14T10:13:09.446Z,26.73
2017-06-14T10:14:10.203Z,27.27
2017-06-14T10:15:10.953Z,27.58
2017-06-14T10:16:11.710Z,27.77
2017-06-14T10:17:12.463Z,27.90
2017-06-14T10:18:13.215Z,28.15
2017-06-14T10:19:13.969Z,28.29
2017-06-14T10:20:14.747Z,28.75
2017-06-14T10:21:15.502Z,28.79
2017-06-14T10:22:16.255Z,29.10
2017-06-14T10:23:17.011Z,29.29
2017-06-14T10:24:17.775Z,28.93
2017-06-14T10:25:18.529Z,29.26
2017-06-14T10:26:19.280Z,29.39
2017-06-14T10:27:20.036Z,29.44
2017-06-14T10:28:20.791Z,29.61
2017-06-14T10:29:21.546Z,29.95
2017-06-14T10:30:22.305Z,29.05
2017-06-14T10:31:23.086Z,29.05
2017-06-14T10:32:23.840Z,28.66
2017-06-14T10:33:24.594Z,28.86
2017-06-14T10:34:25.352Z,28.97
2017-06-14T10:35:26.109Z,29.49
2017-06-14T10:36:26.860Z,29.90
2017-06-14T10:37:27.612Z,30.32
2017-06-14T10:38:28.368Z,29.87
2017-06-14T10:39:29.119Z,30.25
2017-06-14T10:40:29.873Z,30.39
2017-06-14T10:41:30.627Z,30.27
2017-06-14T10:42:31.378Z,30.39
2017-06-14T10:43:32.129Z,30.51
2017-06-14T10:44:32.883Z,30.55
2017-06-14T10:45:33.637Z,30.25
2017-06-14T10:46:34.391Z,30.09
2017-06-14T10:47:35.144Z,30.13
2017-06-14T10:48:35.897Z,30.15
2017-06-14T10:49:36.651Z,30.16
2017-06-14T10:50:37.428Z,29.79
2017-06-14T10:51:38.184Z,29.73
2017-06-14T10:52:38.933Z,29.66
2017-06-14T10:53:39.684Z,29.49
2017-06-14T10:54:40.436Z,29.04
2017-06-14T10:55:41.188Z,28.56
2017-06-14T10:56:41.941Z,28.67
2017-06-14T10:57:42.692Z,28.78
2017-06-14T10:58:43.445Z,28.11
2017-06-14T10:59:44.196Z,28.11
2017-06-14T11:00:44.975Z,27.98
2017-06-14T11:01:45.727Z,27.44
2017-06-14T11:02:46.478Z,27.45
2017-06-14T11:03:47.232Z,26.59
2017-06-14T11:04:47.989Z,26.09
2017-06-14T11:05:48.740Z,25.75
2017-06-14T11:06:49.495Z,26.36
2017-06-14T11:07:50.248Z,27.18
2017-06-14T11:08:51.004Z,27.74
2017-06-14T11:09:51.783Z,28.10
2017-06-14T11:10:52.536Z,28.37
2017-06-14T11:11:53.293Z,28.60
2017-06-14T11:12:54.042Z,29.14
2017-06-14T11:13:54.796Z,29.54
2017-06-14T11:14:55.550Z,29.87
2017-06-14T11:15:56.329Z,30.27
2017-06-14T11:16:57.078Z,29.68
2017-06-14T11:17:57.831Z,29.39
2017-06-14T11:18:58.582Z,29.56
2017-06-14T11:19:59.331Z,30.08
2017-06-14T11:21:00.081Z,30.05
2017-06-14T11:22:00.839Z,29.78
2017-06-14T11:23:01.591Z,28.33
2017-06-14T11:24:02.342Z,28.57
2017-06-14T11:25:03.093Z,29.13
2017-06-14T11:26:03.843Z,28.85
2017-06-14T11:27:04.595Z,28.07
2017-06-14T11:28:05.348Z,28.05
2017-06-14T11:29:06.099Z,28.05
2017-06-14T11:30:06.849Z,28.22
2017-06-14T11:31:07.606Z,28.63
2017-06-14T11:32:08.359Z,29.31
2017-06-14T11:33:09.139Z,29.45
2017-06-14T11:34:09.890Z,29.12
2017-06-14T11:35:10.643Z,29.19
2017-06-14T11:36:11.421Z,29.44
2017-06-14T11:37:12.175Z,29.32
2017-06-14T11:38:12.927Z,29.76
2017-06-14T11:39:13.683Z,30.21
2017-06-14T11:40:14.430Z,30.61
2017-06-14T11:41:15.182Z,30.97
2017-06-14T11:42:15.931Z,31.00
2017-06-14T11:43:16.684Z,31.05
2017-06-14T11:44:17.436Z,31.34
2017-06-14T11:45:18.187Z,31.76
2017-06-14T11:46:18.938Z,31.42
2017-06-14T11:47:19.690Z,31.18
2017-06-14T11:48:20.442Z,31.29
2017-06-14T11:49:21.193Z,31.62
2017-06-14T11:50:21.944Z,31.84
2017-06-14T11:51:22.697Z,31.65
2017-06-14T11:52:23.449Z,30.37
2017-06-14T11:53:24.198Z,29.72
2017-06-14T11:54:24.953Z,29.14
2017-06-14T11:55:25.706Z,28.60
2017-06-14T11:56:26.457Z,28.38
2017-06-14T11:57:27.210Z,27.11
2017-06-14T11:58:27.965Z,25.63
2017-06-14T11:59:28.713Z,26.53
2017-06-14T12:00:29.463Z,27.14
2017-06-14T12:01:30.216Z,27.98
2017-06-14T12:02:30.968Z,28.57
2017-06-14T12:03:31.721Z,28.48
2017-06-14T12:04:32.472Z,28.30
2017-06-14T12:05:33.221Z,28.56
2017-06-14T12:06:33.997Z,28.59
2017-06-14T12:07:34.746Z,28.10
2017-06-14T12:08:35.499Z,28.49
2017-06-14T12:09:36.250Z,28.62
2017-06-14T12:10:37.001Z,28.78
2017-06-14T12:11:37.757Z,29.26
2017-06-14T12:12:38.509Z,29.53
2017-06-14T12:13:39.262Z,29.71
2017-06-14T12:14:40.010Z,30.28
2017-06-14T12:15:40.759Z,30.63
2017-06-14T12:16:41.511Z,30.96
2017-06-14T12:17:42.262Z,30.81
2017-06-14T12:18:43.013Z,31.36
2017-06-14T12:19:43.763Z,31.40
2017-06-14T12:20:44.512Z,31.69
2017-06-14T12:21:45.266Z,31.74
2017-06-14T12:22:46.019Z,32.11
2017-06-14T12:23:46.769Z,32.37
2017-06-14T12:24:47.523Z,32.23
2017-06-14T12:25:48.301Z,32.40
2017-06-14T12:26:49.052Z,32.65
2017-06-14T12:27:49.802Z,32.78
2017-06-14T12:28:50.554Z,32.75
2017-06-14T12:29:51.305Z,32.34
2017-06-14T12:30:52.083Z,32.27
2017-06-14T12:31:52.837Z,32.51
2017-06-14T12:32:53.585Z,32.18
2017-06-14T12:33:54.337Z,32.22
2017-06-14T12:34:55.086Z,31.10
2017-06-14T12:35:55.840Z,30.75
2017-06-14T12:36:56.591Z,30.50
2017-06-14T12:37:57.343Z,30.54
2017-06-14T12:38:58.096Z,30.19
2017-06-14T12:39:58.845Z,30.21
2017-06-14T12:40:59.595Z,30.69
2017-06-14T12:42:00.350Z,30.75
2017-06-14T12:43:01.105Z,30.44
2017-06-14T12:44:01.854Z,29.45
2017-06-14T12:45:02.605Z,29.65
2017-06-14T12:46:03.357Z,28.79
2017-06-14T12:47:04.132Z,28.33
2017-06-14T12:48:04.881Z,28.29
2017-06-14T12:49:05.633Z,28.15
2017-06-14T12:50:06.382Z,28.42
2017-06-14T12:51:07.138Z,28.26
2017-06-14T12:52:07.889Z,28.76
2017-06-14T12:53:08.643Z,29.10
2017-06-14T12:54:09.394Z,29.05
2017-06-14T12:55:10.146Z,29.08
2017-06-14T12:56:10.899Z,29.26
2017-06-14T12:57:11.654Z,29.31
2017-06-14T12:58:12.404Z,29.51
2017-06-14T12:59:13.153Z,29.90
2017-06-14T13:00:13.911Z,30.37
2017-06-14T13:01:14.660Z,30.55
2017-06-14T13:02:15.418Z,31.03